Aérodrome :
LOGIN :

S'inscrire | Disclaimer

   EN    FR    IT 

 










Légende :    VFR   VFR Marginal   IFR   IFR Intensif   IFR Très Intensif
Visi : 
Plafond : 
>= 8 km
>= 3000ft
5 à 8 km
1000 à 3000 ft
1500m à 5 km
500 à 1000 ft
800 à 1500m
200 à 500 ft
< 800m
< 200 ft
Symboles :   Orages  Brouillard  Fortes neiges  Fortes précipitations  Vent > 20 kt
SIGMETs :   Divers  Orages  Givrage  Turbulence  Onde Orograph.  Cendres Volcan.







- Altitude de l'aérodrome : 302 ft
- Code IATA : CGN


EDDK - Cologne Bonn

DERNIER METAR :
  • 140950Z 26012KT 9999 SCT015 BKN030 19/15 Q1014 NOSIG

METARs EXPIRÉS :
  • 140920Z 26009KT 9999 BKN015 19/15 Q1014 NOSIG
  • 140850Z 26011KT 9999 BKN014 18/15 Q1014 BECMG BKN015
  • 140820Z 26013KT 9999 BKN012 18/15 Q1014 TEMPO BKN009
  • 140750Z 26013KT 9999 BKN012 17/15 Q1014 TEMPO BKN009
  • 140720Z 26012KT 9999 BKN012 17/15 Q1013 TEMPO BKN009

TAF AMD TAF EDDK
Valide du 14 à 08h jusqu'au 15 à 12h UTC


140851Z 1408/1512 24009KT 9999 BKN014
BECMG 1408/1411 30011KT SCT014 BKN025
BECMG 1422/1501 VRB03KT
BECMG 1508/1511 26005KT
Pas de NOTAMs connus pour ce terrain.



MET'MAP, la Météo Aéronautique d'un coup d'oeil ! - Copyright ORBIFLY Décembre 2007 - Disclaimer

ORBIFLY MET'MAP TEAM :

Programmation & Développement : Alexandra Zaïnal
Conception & Développement : Baudouin d'Aumeries
Co-Programmation & Développement : Marc-Olivier Méhu
Soutien technique & logistique : Manuel Goepfert

Contact : metmap@orbifly.com




SOURCES & CREDITS :

   NOAA